Forside
METAR-TAF:

METAR-TAF

Lufthavne :

Area_Regional_Airport

South Haven, Michigan, USA

Breddekreds: 42-21-03N, længdekreds: 086-15-22W, højde: 203 m

Aktuelle vejr

Denne rapport blev lavet for 17 minutter siden, kl. 11:55 UTC
Vind 4 kt fra sydøst
Temperatur -1°C
Fugtighed 86%
Tryk 1026 hPa
Sigt: 16.1 km
Overskyet i en højde af 10000 ft

METAR: KLWA 241155Z AUTO 13004KT 10SM OVC100 M01/M03 A3030 RMK AO2 T10091031 11009 21055

Tid: 07:12 (12:12 UTC)


TAF: fraværende

Vejrobservationer og prognoser fra mere end 4000 lufthavne (METAR og TAF).

De gule og røde prikker repræsenterer de meteorologiske stationer.

Flyt musen over at se navnet på stationen.

Så klik over at se vejr observationer og prognoser.

At skifte det kort: Klik på de grønne knapper med et sort kors for at zoome ind; på den grønne knap med en bindestreg for at zoome ud; eller på de grønne pile for tilstødende kort.


METAR-TAF: